Time;durP1;ratioP1;P1;durP2;ratioP2;P2;SDS_P1;SDS_P2;PMS_P1;PMS_P2;Temp;Humidity;BMP_temperature;BMP_pressure;BME280_temperature;BME280_humidity;BME280_pressure;Samples;Min_cycle;Max_cycle;Signal;HPM_P1;HPM_P2
2021/12/25 00:01:42;;;;;;;593.08;322.13;;;;;;;10.26;100.00;98916.03;4833175;29;20057;-66
2021/12/25 00:04:34;;;;;;;623.93;331.53;;;;;;;10.38;100.00;98926.03;4835123;29;20649;-66
2021/12/25 00:07:16;;;;;;;588.88;320.73;;;;;;;10.24;100.00;98921.22;4822089;29;20060;-66
2021/12/25 00:10:05;;;;;;;599.63;324.85;;;;;;;10.07;100.00;98915.59;4835937;29;20050;-66
2021/12/25 00:12:48;;;;;;;597.65;328.02;;;;;;;10.14;100.00;98927.44;4838384;29;20064;-66
2021/12/25 00:15:38;;;;;;;592.53;322.63;;;;;;;10.15;100.00;98924.00;4837174;29;20054;-66
2021/12/25 00:18:27;;;;;;;582.88;316.00;;;;;;;10.15;100.00;98931.72;4837452;29;20366;-66
2021/12/25 00:21:23;;;;;;;590.13;317.27;;;;;;;10.21;100.00;98928.19;4827243;29;20687;-66
2021/12/25 00:23:58;;;;;;;584.47;317.90;;;;;;;10.11;100.00;98926.69;4835883;29;20045;-66
2021/12/25 00:35:55;;;;;;;570.20;310.85;;;;;;;10.19;100.00;98942.81;4816045;29;20038;-66
2021/12/25 00:38:44;;;;;;;565.35;309.08;;;;;;;10.05;100.00;98944.84;4819891;29;20490;-66
2021/12/25 00:41:33;;;;;;;567.75;303.42;;;;;;;10.27;100.00;98954.63;4836944;29;20050;-66
2021/12/25 00:44:21;;;;;;;552.67;310.08;;;;;;;10.25;100.00;98947.81;4826901;29;20061;-66
2021/12/25 00:47:11;;;;;;;562.05;305.55;;;;;;;10.25;100.00;98950.41;4820305;29;20056;-66
2021/12/25 00:49:58;;;;;;;577.40;310.15;;;;;;;10.12;100.00;98942.09;4834825;29;20057;-67
2021/12/25 00:52:42;;;;;;;557.58;305.90;;;;;;;10.54;100.00;98957.38;4834108;29;20064;-66
2021/12/25 00:55:32;;;;;;;546.25;299.85;;;;;;;10.42;100.00;98950.84;4817614;29;20054;-67
2021/12/25 00:58:14;;;;;;;560.67;306.08;;;;;;;10.42;100.00;98957.72;4819905;29;20255;-66
2021/12/25 01:01:03;;;;;;;555.67;302.27;;;;;;;10.01;100.00;98964.66;4836711;29;20730;-66
2021/12/25 01:03:46;;;;;;;560.17;300.30;;;;;;;9.87;100.00;98970.13;4820820;29;20414;-66
2021/12/25 01:06:34;;;;;;;551.65;297.13;;;;;;;9.71;100.00;98962.78;4814943;29;20378;-67
2021/12/25 01:09:18;;;;;;;568.47;305.60;;;;;;;9.57;100.00;98974.22;4833605;29;20049;-66
2021/12/25 01:12:17;;;;;;;562.70;303.15;;;;;;;9.43;100.00;98980.50;4817165;29;20542;-66
2021/12/25 01:14:57;;;;;;;559.90;300.98;;;;;;;9.71;100.00;98978.22;4837527;29;20045;-66
2021/12/25 01:32:55;;;;;;;576.60;312.23;;;;;;;9.45;100.00;99002.75;4819338;29;20065;-67
2021/12/25 01:39:55;;;;;;;556.40;299.73;;;;;;;9.46;100.00;99009.59;4821898;29;20681;-67
2021/12/25 01:49:42;;;;;;;580.15;309.13;;;;;;;9.72;100.00;99015.94;4821421;29;20049;-67
2021/12/25 01:52:29;;;;;;;567.40;309.40;;;;;;;9.81;100.00;99008.03;4834856;29;20386;-67
2021/12/25 01:55:25;;;;;;;557.28;304.10;;;;;;;9.89;100.00;99019.00;4834479;29;20076;-67
2021/12/25 01:58:10;;;;;;;558.10;309.08;;;;;;;9.90;100.00;99025.81;4835288;29;20053;-67
2021/12/25 02:00:59;;;;;;;554.92;303.38;;;;;;;9.69;100.00;99028.84;4839374;29;20050;-67
2021/12/25 02:03:43;;;;;;;561.83;300.95;;;;;;;9.48;100.00;99031.00;4838831;29;20168;-67
2021/12/25 02:06:31;;;;;;;542.65;292.73;;;;;;;9.47;100.00;99029.28;4831808;29;20058;-67
2021/12/25 02:09:14;;;;;;;542.45;299.02;;;;;;;9.48;100.00;99035.28;4832808;29;20062;-67
2021/12/25 02:12:03;;;;;;;556.92;300.10;;;;;;;9.60;100.00;99041.03;4823288;29;20068;-67
2021/12/25 02:14:52;;;;;;;568.70;304.10;;;;;;;9.44;100.00;99042.19;4823389;29;20042;-67
2021/12/25 02:20:55;;;;;;;558.03;300.63;;;;;;;9.52;100.00;99035.19;4842931;29;20116;-67
2021/12/25 02:23:50;;;;;;;558.72;302.70;;;;;;;9.60;100.00;99038.44;4838652;29;20081;-68
2021/12/25 02:26:26;;;;;;;558.75;302.67;;;;;;;9.57;100.00;99033.38;4835153;29;20046;-68
2021/12/25 02:29:13;;;;;;;562.05;305.52;;;;;;;9.74;100.00;99035.56;4824017;29;20060;-67
2021/12/25 02:31:57;;;;;;;562.05;306.55;;;;;;;9.61;100.00;99039.28;4820221;29;20054;-68
2021/12/25 02:34:50;;;;;;;561.60;307.20;;;;;;;9.89;100.00;99039.59;4819547;29;20054;-68
2021/12/25 02:37:33;;;;;;;562.70;305.35;;;;;;;9.78;100.00;99044.94;4835575;29;20061;-66
2021/12/25 02:40:21;;;;;;;560.35;304.30;;;;;;;9.71;100.00;99051.09;4819710;29;20132;-67
2021/12/25 02:43:03;;;;;;;554.40;304.55;;;;;;;9.87;100.00;99043.91;4820163;29;20050;-67
2021/12/25 02:45:54;;;;;;;562.10;302.35;;;;;;;10.08;100.00;99048.56;4835083;29;20510;-67
2021/12/25 02:48:38;;;;;;;577.13;312.92;;;;;;;10.11;100.00;99053.66;4819978;29;20541;-68
2021/12/25 02:51:27;;;;;;;573.53;311.33;;;;;;;10.09;100.00;99052.84;4825673;29;20060;-67
2021/12/25 02:54:15;;;;;;;554.85;310.85;;;;;;;10.33;100.00;99054.91;4825886;29;20587;-67
2021/12/25 02:57:03;;;;;;;562.72;307.98;;;;;;;10.31;100.00;99059.22;4841376;29;20058;-67
2021/12/25 02:59:47;;;;;;;585.13;312.05;;;;;;;10.32;100.00;99055.78;4824790;29;20069;-67
2021/12/25 03:02:35;;;;;;;578.30;317.80;;;;;;;10.39;100.00;99056.47;4851704;29;20064;-67
2021/12/25 03:05:18;;;;;;;585.65;314.85;;;;;;;10.59;100.00;99053.44;4837235;29;20118;-67
2021/12/25 03:08:16;;;;;;;597.67;321.92;;;;;;;10.61;100.00;99054.25;4841594;29;20049;-67
2021/12/25 03:10:56;;;;;;;582.55;316.83;;;;;;;10.61;100.00;99060.25;4846576;29;20046;-68
2021/12/25 03:14:13;;;;;;;582.30;314.05;;;;;;;10.76;100.00;99060.78;4845710;29;20121;-67
2021/12/25 03:16:48;;;;;;;572.50;316.63;;;;;;;10.77;100.00;99065.88;4841440;29;20057;-66
2021/12/25 03:19:43;;;;;;;585.33;320.48;;;;;;;10.87;100.00;99063.91;4841243;29;20577;-67
2021/12/25 03:22:25;;;;;;;592.28;317.38;;;;;;;10.86;100.00;99060.47;4839495;29;20068;-67
2021/12/25 03:25:18;;;;;;;588.78;324.00;;;;;;;11.16;100.00;99060.59;4841176;29;20041;-68
2021/12/25 03:28:14;;;;;;;586.55;323.77;;;;;;;11.38;100.00;99066.88;4831890;29;20038;-67
2021/12/25 03:30:49;;;;;;;615.75;325.27;;;;;;;11.34;100.00;99067.81;4823342;29;20050;-67
2021/12/25 03:33:36;;;;;;;592.70;323.25;;;;;;;11.45;100.00;99063.25;4844457;29;20549;-67
2021/12/25 03:36:19;;;;;;;580.25;321.23;;;;;;;11.69;100.00;99067.72;4821532;29;20157;-68
2021/12/25 03:39:14;;;;;;;609.22;328.67;;;;;;;11.87;100.00;99074.97;4843858;29;20054;-67
2021/12/25 03:41:51;;;;;;;595.55;324.98;;;;;;;12.10;100.00;99078.63;4841329;29;20054;-66
2021/12/25 03:44:39;;;;;;;587.83;320.23;;;;;;;12.46;100.00;99080.06;4838240;29;20062;-66
2021/12/25 03:47:37;;;;;;;573.67;313.80;;;;;;;12.55;100.00;99090.13;4837910;29;20118;-68
2021/12/25 03:53:25;;;;;;;540.90;302.23;;;;;;;12.98;100.00;99091.31;4845301;29;20045;-65
2021/12/25 03:59:14;;;;;;;509.98;275.85;;;;;;;13.95;100.00;99087.91;4844585;29;20395;-66
2021/12/25 04:02:07;;;;;;;484.13;263.63;;;;;;;14.39;100.00;99099.22;4845416;29;20070;-67
2021/12/25 04:04:51;;;;;;;475.27;258.90;;;;;;;14.38;100.00;99104.41;4843269;29;20065;-67
2021/12/25 04:10:23;;;;;;;446.60;243.32;;;;;;;14.88;100.00;99105.03;4843965;29;20045;-67
2021/12/25 04:13:13;;;;;;;441.70;236.98;;;;;;;14.79;100.00;99114.03;4822753;29;20049;-67
2021/12/25 04:15:55;;;;;;;433.33;237.80;;;;;;;14.96;100.00;99115.09;4855468;29;20100;-68
2021/12/25 04:18:43;;;;;;;418.30;224.95;;;;;;;15.10;100.00;99117.97;4820837;29;20698;-68
2021/12/25 04:21:25;;;;;;;433.73;231.75;;;;;;;15.37;100.00;99121.19;4822379;29;21352;-67
2021/12/25 04:24:13;;;;;;;431.38;223.30;;;;;;;15.38;100.00;99126.31;4841482;29;20064;-68
2021/12/25 04:26:55;;;;;;;414.15;218.68;;;;;;;15.49;100.00;99131.88;4836983;29;20156;-68
2021/12/25 04:30:16;;;;;;;397.20;212.00;;;;;;;15.53;100.00;99125.69;4830851;29;20088;-68
2021/12/25 04:48:30;;;;;;;377.17;196.77;;;;;;;16.17;100.00;99155.78;4817367;29;20061;-67
2021/12/25 05:04:09;;;;;;;392.52;206.95;;;;;;;16.71;100.00;99165.44;4789814;29;20059;-67
2021/12/25 05:07:33;;;;;;;405.17;209.98;;;;;;;17.07;100.00;99161.09;4809066;29;20051;-67
2021/12/25 05:10:16;;;;;;;395.70;214.00;;;;;;;16.59;100.00;99156.44;4834316;29;20110;-67
2021/12/25 05:13:12;;;;;;;379.25;207.82;;;;;;;16.58;100.00;99151.28;4839834;29;20457;-67
2021/12/25 05:15:47;;;;;;;392.40;211.23;;;;;;;16.77;100.00;99147.75;4834955;29;20097;-68
2021/12/25 05:18:44;;;;;;;415.45;224.93;;;;;;;16.72;100.00;99147.16;4810583;29;20058;-67
2021/12/25 05:21:39;;;;;;;408.58;220.45;;;;;;;16.68;100.00;99142.19;4798987;29;20053;-67
2021/12/25 05:24:29;;;;;;;393.70;214.10;;;;;;;16.67;100.00;99135.28;4818725;29;20146;-69
2021/12/25 05:27:20;;;;;;;405.58;220.48;;;;;;;16.82;100.00;99131.94;4821119;29;20492;-68
2021/12/25 05:30:02;;;;;;;429.45;229.90;;;;;;;16.55;100.00;99126.25;4841960;29;20526;-69
2021/12/25 05:33:15;;;;;;;420.15;222.85;;;;;;;16.77;100.00;99121.75;4840813;29;20057;-69
2021/12/25 05:36:15;;;;;;;414.40;224.05;;;;;;;16.78;100.00;99117.38;4843641;29;20073;-71
2021/12/25 05:39:33;;;;;;;405.90;219.32;;;;;;;17.06;100.00;99120.34;4822548;29;20061;-70
2021/12/25 05:42:14;;;;;;;401.63;214.90;;;;;;;17.10;100.00;99134.03;4823002;29;20065;-70
2021/12/25 05:45:04;;;;;;;376.73;205.82;;;;;;;17.51;100.00;99134.56;4816940;29;20845;-69
2021/12/25 05:48:04;;;;;;;358.80;196.73;;;;;;;17.39;100.00;99130.00;4825162;29;20126;-69
2021/12/25 05:51:01;;;;;;;326.95;172.57;;;;;;;17.64;100.00;99134.84;4821327;29;20370;-69
2021/12/25 05:54:01;;;;;;;342.60;182.50;;;;;;;17.45;100.00;99132.28;4839778;29;20056;-70
2021/12/25 05:57:09;;;;;;;319.60;174.75;;;;;;;17.81;100.00;99127.81;4834831;29;20052;-70
2021/12/25 06:00:11;;;;;;;304.02;161.85;;;;;;;17.91;100.00;99121.19;4840737;29;20198;-69
2021/12/25 06:03:01;;;;;;;290.33;153.52;;;;;;;18.20;100.00;99124.00;4838096;29;20054;-69
2021/12/25 06:05:47;;;;;;;245.30;136.15;;;;;;;18.18;99.42;99123.28;4827164;29;20068;-69
2021/12/25 06:08:36;;;;;;;254.05;140.85;;;;;;;18.45;94.09;99118.31;4827964;29;20637;-69
2021/12/25 06:11:18;;;;;;;227.45;128.07;;;;;;;17.89;93.67;99115.22;4842831;29;20056;-69
2021/12/25 06:14:10;;;;;;;227.13;122.47;;;;;;;18.40;93.33;99105.53;4836750;29;20049;-69
2021/12/25 06:17:15;;;;;;;221.05;121.25;;;;;;;18.50;91.43;99106.72;4818275;29;20439;-66
2021/12/25 06:20:05;;;;;;;221.35;123.85;;;;;;;18.78;90.57;99106.03;4819064;29;20066;-69
2021/12/25 06:22:57;;;;;;;231.43;122.00;;;;;;;18.56;90.75;99106.38;4831193;29;20090;-67
2021/12/25 06:26:09;;;;;;;212.30;113.70;;;;;;;18.60;87.70;99101.81;4821520;29;20125;-67
2021/12/25 06:29:19;;;;;;;210.68;118.40;;;;;;;18.89;90.16;99101.03;4840941;29;20080;-67
2021/12/25 06:32:24;;;;;;;204.70;116.78;;;;;;;19.18;87.62;99088.91;4834714;29;20049;-67
2021/12/25 06:35:32;;;;;;;214.95;119.63;;;;;;;19.32;87.16;99085.47;4832256;29;20054;-67
2021/12/25 06:38:32;;;;;;;207.45;119.32;;;;;;;19.29;86.39;99093.50;4834705;29;20068;-67
2021/12/25 06:41:46;;;;;;;212.80;116.32;;;;;;;19.28;84.52;99084.81;4828951;29;20045;-67
2021/12/25 06:44:29;;;;;;;205.85;113.18;;;;;;;19.11;85.66;99077.97;4819649;29;20065;-66
2021/12/25 06:47:28;;;;;;;218.38;115.78;;;;;;;19.10;88.32;99070.22;4825235;29;20118;-69
2021/12/25 06:50:13;;;;;;;213.60;115.25;;;;;;;19.37;87.18;99067.78;4822209;29;20058;-66
2021/12/25 06:53:37;;;;;;;214.85;118.60;;;;;;;19.70;88.01;99070.16;5212474;23;20240;31
2021/12/25 06:56:49;;;;;;;203.77;117.75;;;;;;;19.27;83.75;99062.25;4791540;29;20050;-63
2021/12/25 06:59:38;;;;;;;211.60;120.25;;;;;;;19.17;83.01;99063.72;4791185;29;20435;-65
2021/12/25 07:02:19;;;;;;;220.13;121.57;;;;;;;19.20;82.81;99062.69;4825925;29;20382;-64
2021/12/25 07:05:42;;;;;;;210.15;117.95;;;;;;;19.45;83.23;99055.09;4809370;29;20053;-64
2021/12/25 07:08:38;;;;;;;211.65;118.90;;;;;;;19.55;82.07;99039.72;4824428;29;20073;-64
2021/12/25 07:11:39;;;;;;;212.00;117.90;;;;;;;19.69;81.55;99034.50;4827014;29;20137;-64
2021/12/25 07:14:36;;;;;;;206.02;115.53;;;;;;;19.69;80.63;99032.72;4828479;29;20060;-67
2021/12/25 07:17:42;;;;;;;198.93;106.53;;;;;;;19.62;72.16;99036.66;4826614;29;20518;-63
2021/12/25 07:20:50;;;;;;;199.55;110.10;;;;;;;19.62;72.53;99026.19;4828929;29;20057;-64
2021/12/25 07:24:03;;;;;;;212.52;111.97;;;;;;;19.78;74.52;99015.63;4806196;29;20064;-64
2021/12/25 07:27:03;;;;;;;210.73;116.00;;;;;;;19.92;76.41;99017.38;4807126;29;20050;-64
2021/12/25 07:29:57;;;;;;;218.68;115.10;;;;;;;19.80;72.21;99013.72;4828314;29;20058;-62
2021/12/25 07:32:52;;;;;;;218.63;119.30;;;;;;;19.91;71.76;99003.44;4818946;29;20050;-64
2021/12/25 07:35:27;;;;;;;232.80;123.13;;;;;;;19.95;74.42;98996.28;4820955;29;20058;-65
2021/12/25 07:38:18;;;;;;;230.30;124.88;;;;;;;19.74;79.37;98987.97;4819209;29;20057;-63
2021/12/25 07:41:07;;;;;;;234.38;124.60;;;;;;;19.58;76.16;98997.69;4828824;29;20046;-66
2021/12/25 07:43:49;;;;;;;227.45;126.53;;;;;;;19.53;74.51;98984.09;4814569;29;20060;-65
2021/12/25 07:46:59;;;;;;;266.90;140.95;;;;;;;19.40;73.14;98984.78;4814442;29;20119;-65
2021/12/25 07:49:41;;;;;;;281.17;146.80;;;;;;;19.61;74.42;98980.06;4826813;29;20053;-65
2021/12/25 07:52:30;;;;;;;267.80;143.80;;;;;;;19.81;77.50;98981.41;4824324;29;20045;-63
2021/12/25 07:55:11;;;;;;;275.50;146.73;;;;;;;19.58;76.85;98980.25;4825831;29;20400;-64
2021/12/25 07:58:01;;;;;;;287.17;148.73;;;;;;;19.46;74.87;98974.00;4809605;29;20061;-64
2021/12/25 08:00:43;;;;;;;290.67;153.60;;;;;;;19.48;75.41;98984.34;4808191;29;20510;-64
2021/12/25 08:03:32;;;;;;;332.33;171.85;;;;;;;19.57;77.84;98972.50;4810967;29;20110;-63
2021/12/25 08:06:14;;;;;;;403.13;205.32;;;;;;;19.70;76.65;98970.81;4803549;29;20391;-64
2021/12/25 08:09:04;;;;;;;380.90;197.57;;;;;;;19.70;76.57;98974.28;4810217;29;20051;-64
2021/12/25 08:11:45;;;;;;;433.83;223.55;;;;;;;19.73;79.89;98970.59;4817213;29;20535;-64
2021/12/25 08:14:36;;;;;;;507.75;281.38;;;;;;;19.46;81.18;98971.38;4809929;29;20442;-64
2021/12/25 08:17:17;;;;;;;531.70;292.27;;;;;;;19.29;82.23;98961.13;4816730;29;20088;-64
2021/12/25 08:20:27;;;;;;;526.95;284.90;;;;;;;19.05;81.68;98953.00;4782535;29;20063;-64
2021/12/25 08:23:29;;;;;;;523.50;285.30;;;;;;;19.06;84.50;98948.59;4800581;29;20364;-64
2021/12/25 08:26:42;;;;;;;;;;;;;;;19.05;82.00;98944.31;4800297;29;20142;-64
2021/12/25 08:29:46;;;;;;;469.40;239.57;;;;;;;19.06;81.42;98948.59;4783475;29;19928;-65
2021/12/25 08:32:59;;;;;;;474.83;244.63;;;;;;;19.00;82.80;98938.50;4819197;29;20057;-66
2021/12/25 08:36:04;;;;;;;460.70;237.98;;;;;;;19.01;81.61;98942.81;4819268;29;20556;-65
2021/12/25 08:38:54;;;;;;;456.83;235.40;;;;;;;19.17;83.23;98948.78;4819467;29;20051;-66
2021/12/25 08:41:38;;;;;;;434.88;218.55;;;;;;;19.25;80.69;98935.25;4818365;29;20057;-65
2021/12/25 08:44:35;;;;;;;422.88;212.10;;;;;;;19.19;78.74;98946.91;4829569;29;20055;-65
2021/12/25 08:47:17;;;;;;;418.55;210.07;;;;;;;19.20;78.13;98947.75;4808284;29;20054;-65
2021/12/25 08:50:06;;;;;;;412.83;207.90;;;;;;;19.27;79.59;98947.28;4818095;29;20082;-65
2021/12/25 08:52:47;;;;;;;407.85;202.50;;;;;;;19.26;80.79;98950.84;4813850;29;20055;-65
2021/12/25 08:55:36;;;;;;;388.23;190.23;;;;;;;19.21;80.91;98942.44;4808635;29;20046;-65
2021/12/25 08:58:18;;;;;;;344.45;174.02;;;;;;;19.18;78.17;98942.63;4825391;29;20054;-66
2021/12/25 09:01:08;;;;;;;364.63;178.65;;;;;;;19.22;79.43;98928.47;4808443;29;20054;-64
2021/12/25 09:03:51;;;;;;;335.92;165.43;;;;;;;19.24;79.64;98937.03;4810147;29;20058;-65
2021/12/25 09:06:41;;;;;;;328.42;157.20;;;;;;;19.20;76.98;98939.94;4808587;29;20065;-64
2021/12/25 09:09:35;;;;;;;306.17;153.55;;;;;;;19.20;79.11;98940.78;4822751;29;20647;-65
2021/12/25 09:12:14;;;;;;;306.42;155.57;;;;;;;19.20;80.09;98939.94;4810447;29;20062;-66
2021/12/25 09:15:02;;;;;;;275.83;142.13;;;;;;;19.08;76.93;98936.28;4809368;29;20055;-66
2021/12/25 09:17:46;;;;;;;280.67;137.45;;;;;;;18.99;78.11;98936.84;4807334;29;20081;-65
2021/12/25 09:20:35;;;;;;;272.05;139.00;;;;;;;18.89;81.60;98927.88;4803456;29;20137;-66
2021/12/25 09:23:24;;;;;;;247.48;125.00;;;;;;;18.84;79.01;98924.69;4810017;29;20043;-65
2021/12/25 09:26:05;;;;;;;243.20;121.85;;;;;;;18.89;77.98;98920.06;4824848;29;20047;-65
2021/12/25 09:28:54;;;;;;;216.95;113.85;;;;;;;18.88;75.81;98915.75;4822774;29;20492;-64
2021/12/25 09:31:35;;;;;;;234.65;115.25;;;;;;;18.89;81.20;98905.22;4810056;29;20054;-65
2021/12/25 09:34:25;;;;;;;204.93;108.30;;;;;;;18.66;72.98;98910.97;4808456;29;20130;-66
2021/12/25 09:37:13;;;;;;;215.50;111.85;;;;;;;18.67;76.26;98910.91;4812579;29;20058;-65
2021/12/25 09:40:02;;;;;;;213.23;112.68;;;;;;;18.75;78.27;98902.63;4808735;29;20129;-65
2021/12/25 09:42:44;;;;;;;213.38;112.10;;;;;;;18.86;80.86;98904.56;4806183;29;20059;-65
2021/12/25 09:45:33;;;;;;;214.90;111.15;;;;;;;18.75;76.73;98907.00;4803294;29;20129;-66
2021/12/25 09:48:15;;;;;;;201.90;108.25;;;;;;;18.88;75.95;98900.09;4810008;29;20053;-65
2021/12/25 09:51:05;;;;;;;198.07;103.70;;;;;;;18.70;73.66;98905.47;4809325;29;20058;-65
2021/12/25 09:54:08;;;;;;;198.48;103.78;;;;;;;18.77;76.35;98898.13;4806843;29;20054;-65
2021/12/25 09:57:05;;;;;;;200.30;103.88;;;;;;;18.79;76.70;98903.25;4794237;29;20058;-66
2021/12/25 09:59:40;;;;;;;195.85;104.38;;;;;;;18.77;79.03;98899.88;4786292;29;20131;-65
2021/12/25 10:02:47;;;;;;;209.73;107.22;;;;;;;18.76;77.30;98893.81;4797451;29;20062;-65
2021/12/25 10:05:26;;;;;;;205.07;108.47;;;;;;;18.76;77.69;98898.22;4811141;29;20138;-65
2021/12/25 10:08:25;;;;;;;216.13;110.35;;;;;;;18.73;78.99;98894.88;4790558;29;20561;-65
2021/12/25 10:11:02;;;;;;;207.30;110.15;;;;;;;18.62;81.38;98891.19;4798892;29;20601;-65
2021/12/25 10:14:01;;;;;;;216.95;111.03;;;;;;;18.68;79.45;98896.91;4801659;29;20057;-65
2021/12/25 10:16:36;;;;;;;213.55;109.72;;;;;;;18.50;76.03;98900.56;4788483;29;20058;-65
2021/12/25 10:19:32;;;;;;;223.75;110.63;;;;;;;18.46;75.02;98901.66;4786039;29;20464;-65
2021/12/25 10:22:19;;;;;;;215.85;112.68;;;;;;;18.53;75.99;98892.56;4787581;29;20043;-65
2021/12/25 10:25:19;;;;;;;212.73;112.63;;;;;;;18.52;78.57;98897.84;4789188;29;20721;-66
2021/12/25 10:28:10;;;;;;;212.77;112.13;;;;;;;18.43;84.35;98893.19;4787070;29;20082;-67
2021/12/25 10:31:00;;;;;;;210.10;114.13;;;;;;;18.29;84.15;98900.03;4783908;29;20073;-67
2021/12/25 10:33:52;;;;;;;215.77;114.25;;;;;;;18.14;86.47;98895.72;4787688;29;20044;-66
2021/12/25 10:36:42;;;;;;;219.80;113.38;;;;;;;18.06;89.50;98902.28;4791810;29;20070;-66
2021/12/25 10:39:30;;;;;;;230.23;115.70;;;;;;;17.96;91.69;98897.59;4791832;29;20131;-67
2021/12/25 10:42:26;;;;;;;223.38;119.35;;;;;;;17.89;93.57;98898.88;4806543;29;20509;-66
2021/12/25 10:45:23;;;;;;;214.57;116.88;;;;;;;17.81;95.14;98898.47;4791490;29;20062;-64
2021/12/25 10:48:10;;;;;;;231.20;118.20;;;;;;;17.77;96.65;98902.19;4795488;29;20046;-65
2021/12/25 10:51:00;;;;;;;220.00;117.72;;;;;;;17.80;97.93;98904.59;4795426;29;20054;-67
2021/12/25 10:53:44;;;;;;;222.75;120.20;;;;;;;17.81;98.15;98897.63;4796008;29;20062;-65
2021/12/25 10:56:44;;;;;;;227.10;120.90;;;;;;;17.86;100.00;98895.59;4807977;29;20054;-67
2021/12/25 10:59:19;;;;;;;223.68;121.13;;;;;;;17.89;99.56;98901.47;4821394;29;20081;-65
2021/12/25 11:02:06;;;;;;;225.00;120.28;;;;;;;17.90;100.00;98890.13;4807481;29;20567;-64
2021/12/25 11:04:49;;;;;;;227.73;119.82;;;;;;;17.89;100.00;98898.03;4807124;29;20054;-65
2021/12/25 11:07:37;;;;;;;234.10;122.53;;;;;;;17.84;100.00;98893.09;4812864;29;20061;-64
2021/12/25 11:10:29;;;;;;;222.32;121.10;;;;;;;17.85;100.00;98899.13;4810939;29;20049;-64
2021/12/25 11:13:22;;;;;;;231.43;119.20;;;;;;;17.80;100.00;98891.56;4812413;29;20058;-67
2021/12/25 11:16:41;;;;;;;235.27;119.25;;;;;;;17.83;100.00;98894.00;4811599;29;20058;-68
2021/12/25 11:19:34;;;;;;;237.82;121.82;;;;;;;17.78;100.00;98893.44;4811732;29;20058;-66
2021/12/25 11:22:23;;;;;;;220.97;121.77;;;;;;;17.72;100.00;98892.94;4812077;29;20070;-65
2021/12/25 11:25:08;;;;;;;229.80;122.68;;;;;;;17.74;100.00;98896.28;4825897;29;20054;-65
2021/12/25 11:27:56;;;;;;;233.98;121.63;;;;;;;17.67;100.00;98889.72;4810092;29;20054;-62
2021/12/25 11:30:42;;;;;;;235.52;121.05;;;;;;;17.59;100.00;98897.94;4811658;29;20059;-64
2021/12/25 11:33:31;;;;;;;233.00;122.33;;;;;;;17.53;100.00;98904.34;4810202;29;20493;-64
2021/12/25 11:36:13;;;;;;;216.05;121.22;;;;;;;17.47;100.00;98898.63;4809003;29;20051;-66
2021/12/25 11:39:02;;;;;;;233.38;124.10;;;;;;;17.40;100.00;98902.50;4787131;29;20656;-67
2021/12/25 11:41:48;;;;;;;234.50;121.32;;;;;;;17.28;100.00;98888.34;4808006;29;20062;-65
2021/12/25 11:44:54;;;;;;;221.48;121.03;;;;;;;17.26;100.00;98884.13;4810048;29;20078;-64
2021/12/25 11:47:45;;;;;;;249.27;124.20;;;;;;;17.15;100.00;98885.59;4811605;29;20739;-65
2021/12/25 11:50:43;;;;;;;235.05;120.53;;;;;;;17.14;100.00;98881.28;4805109;29;20181;-65
2021/12/25 11:57:32;;;;;;;244.85;120.25;;;;;;;16.86;100.00;98881.06;4805083;29;20055;-64
2021/12/25 12:00:00;;;;;;;228.15;122.00;;;;;;;16.74;100.00;98881.69;4806214;29;20050;-64
2021/12/25 12:02:48;;;;;;;235.32;124.07;;;;;;;16.57;100.00;98881.69;4805553;29;20065;-65
2021/12/25 12:05:36;;;;;;;241.27;123.68;;;;;;;16.48;100.00;98888.19;4802214;29;20064;-65
2021/12/25 12:08:24;;;;;;;251.45;124.35;;;;;;;16.40;100.00;98886.00;4809121;29;20062;-64
2021/12/25 12:11:36;;;;;;;250.85;124.43;;;;;;;16.31;100.00;98878.63;4803855;29;20058;-66
2021/12/25 12:15:12;;;;;;;238.57;127.13;;;;;;;16.11;100.00;98886.59;4811341;29;20061;-65
2021/12/25 12:18:42;;;;;;;247.25;126.70;;;;;;;15.97;100.00;98894.19;4806465;29;20073;-66
2021/12/25 12:21:24;;;;;;;262.20;127.93;;;;;;;15.89;100.00;98891.13;4798479;29;20047;-66
2021/12/25 12:24:45;;;;;;;250.40;125.55;;;;;;;15.76;100.00;98892.66;4801149;29;20054;-67
2021/12/25 12:27:35;;;;;;;248.65;125.25;;;;;;;15.65;100.00;98888.78;4800031;29;20051;-67
2021/12/25 12:30:38;;;;;;;257.42;125.85;;;;;;;15.54;100.00;98895.41;4816850;29;20051;-65
2021/12/25 12:33:22;;;;;;;273.45;131.90;;;;;;;15.42;100.00;98888.16;4811414;29;20112;-67
2021/12/25 12:36:28;;;;;;;254.15;131.98;;;;;;;15.35;100.00;98892.78;4819002;29;20058;-68
2021/12/25 12:39:15;;;;;;;257.77;135.52;;;;;;;15.29;100.00;98899.13;4811227;29;20163;-65
2021/12/25 12:42:07;;;;;;;266.60;136.77;;;;;;;15.23;100.00;98903.75;4824127;29;20081;-65
2021/12/25 12:45:19;;;;;;;280.70;138.90;;;;;;;15.12;100.00;98904.22;4809395;29;20398;-67
2021/12/25 12:48:18;;;;;;;275.55;142.77;;;;;;;15.15;100.00;98913.63;4818475;29;20070;-66
2021/12/25 12:51:01;;;;;;;275.45;141.23;;;;;;;15.10;100.00;98910.38;4817551;29;20806;-64
2021/12/25 12:53:51;;;;;;;309.60;149.73;;;;;;;15.08;100.00;98909.63;4814777;29;20432;-64
2021/12/25 12:57:01;;;;;;;301.27;153.10;;;;;;;14.87;100.00;98912.25;4809835;29;20062;-64
2021/12/25 12:59:53;;;;;;;314.02;151.63;;;;;;;14.89;100.00;98922.56;4816893;29;20054;-63
2021/12/25 13:02:59;;;;;;;319.80;155.15;;;;;;;15.00;100.00;98920.34;4811349;29;20082;-64
2021/12/25 13:05:53;;;;;;;291.92;150.18;;;;;;;14.97;100.00;98927.41;4816252;29;20058;-67
2021/12/25 13:08:48;;;;;;;316.25;147.88;;;;;;;14.93;100.00;98929.28;4805027;29;20054;-69
2021/12/25 13:11:33;;;;;;;302.73;151.13;;;;;;;14.95;100.00;98927.47;4802893;29;20580;-72
2021/12/25 13:14:24;;;;;;;296.52;145.30;;;;;;;14.88;100.00;98934.69;4811386;29;20047;-69
2021/12/25 13:17:15;;;;;;;304.08;146.20;;;;;;;14.76;100.00;98937.81;4817497;29;20433;-69
2021/12/25 13:20:10;;;;;;;302.00;147.65;;;;;;;14.77;100.00;98941.22;4811690;29;20382;-70
2021/12/25 13:23:06;;;;;;;281.67;145.57;;;;;;;14.65;100.00;98941.75;4809205;29;20051;-73
2021/12/25 13:25:57;;;;;;;308.33;148.68;;;;;;;14.64;100.00;98946.09;4806815;29;20387;-75
2021/12/25 13:28:47;;;;;;;308.23;147.90;;;;;;;14.60;100.00;98951.50;4811102;29;20614;-64
2021/12/25 13:31:40;;;;;;;315.77;150.50;;;;;;;14.59;100.00;98955.84;4801351;29;20050;-70
2021/12/25 13:34:28;;;;;;;301.33;148.75;;;;;;;14.62;100.00;98953.09;4807895;29;20478;-66
2021/12/25 13:37:19;;;;;;;286.73;146.45;;;;;;;14.60;100.00;98954.09;4804418;29;20051;-66
2021/12/25 13:40:07;;;;;;;303.02;148.00;;;;;;;14.57;100.00;98952.47;4808026;29;20054;-66
2021/12/25 13:42:48;;;;;;;305.08;150.75;;;;;;;14.62;100.00;98953.09;4803337;29;20051;-67
2021/12/25 13:45:38;;;;;;;307.83;149.55;;;;;;;14.50;100.00;98957.06;4806336;29;20447;-68
2021/12/25 13:48:39;;;;;;;306.77;147.35;;;;;;;14.39;100.00;98961.00;4807990;29;20364;-70
2021/12/25 13:51:28;;;;;;;305.77;147.70;;;;;;;14.37;100.00;98960.16;4809846;29;20055;-68
2021/12/25 13:54:17;;;;;;;303.73;147.50;;;;;;;14.42;100.00;98968.66;4823259;29;20046;-67
2021/12/25 13:57:07;;;;;;;303.30;149.60;;;;;;;14.39;100.00;98973.94;4819384;29;20123;-67
2021/12/25 14:00:06;;;;;;;302.02;149.48;;;;;;;14.35;100.00;98969.78;4803861;29;20080;-68
2021/12/25 14:02:46;;;;;;;315.77;157.13;;;;;;;14.43;100.00;98970.34;4804012;29;20059;-66
2021/12/25 14:05:39;;;;;;;305.20;149.57;;;;;;;14.31;100.00;98968.19;4807601;29;20066;-69